createdAt,value
2017-02-17T00:00:14.417Z,930.95
2017-02-17T00:00:42.534Z,930.97
2017-02-17T00:01:10.703Z,930.93
2017-02-17T00:01:38.876Z,930.97
2017-02-17T00:02:06.863Z,930.97
2017-02-17T00:02:34.729Z,930.97
2017-02-17T00:03:02.966Z,930.99
2017-02-17T00:03:31.158Z,931
2017-02-17T00:03:59.208Z,931.01
2017-02-17T00:04:27.306Z,931.08
2017-02-17T00:04:55.509Z,931.01
2017-02-17T00:05:23.555Z,931.05
2017-02-17T00:05:51.914Z,931.04
2017-02-17T00:06:20.053Z,931.07
2017-02-17T00:06:48.211Z,931.09
2017-02-17T00:07:16.244Z,931.04
2017-02-17T00:07:44.330Z,931.06
2017-02-17T00:08:12.348Z,931.05
2017-02-17T00:08:40.383Z,931.06
2017-02-17T00:09:08.580Z,931.02
2017-02-17T00:09:36.596Z,931.06
2017-02-17T00:10:04.769Z,931.09
2017-02-17T00:10:32.680Z,931.06
2017-02-17T00:11:01.014Z,931.08
2017-02-17T00:11:29.228Z,931.07
2017-02-17T00:11:57.412Z,931.11
2017-02-17T00:12:25.559Z,931.09
2017-02-17T00:12:53.747Z,931.1
2017-02-17T00:13:21.928Z,931.09
2017-02-17T00:13:50.037Z,931.12
2017-02-17T00:14:18.189Z,931.11
2017-02-17T00:14:46.334Z,931.1
2017-02-17T00:15:14.507Z,931.11
2017-02-17T00:15:42.586Z,931.13
2017-02-17T00:16:10.799Z,931.15
2017-02-17T00:16:38.979Z,931.13
2017-02-17T00:17:07.131Z,931.14
2017-02-17T00:17:35.259Z,931.11
2017-02-17T00:18:03.391Z,931.12
2017-02-17T00:18:31.297Z,931.14
2017-02-17T00:18:59.514Z,931.14
2017-02-17T00:19:27.612Z,931.11
2017-02-17T00:19:55.662Z,931.11
2017-02-17T00:20:23.735Z,931.12
2017-02-17T00:20:52.081Z,931.11
2017-02-17T00:21:20.071Z,931.1
2017-02-17T00:21:48.139Z,931.12
2017-02-17T00:22:16.282Z,931.14
2017-02-17T00:22:44.336Z,931.11
2017-02-17T00:23:12.437Z,931.14
2017-02-17T00:23:40.567Z,931.15
2017-02-17T00:24:08.673Z,931.17
2017-02-17T00:24:36.831Z,931.15
2017-02-17T00:25:04.947Z,931.13
2017-02-17T00:25:32.935Z,931.1
2017-02-17T00:26:01.236Z,931.14
2017-02-17T00:26:29.335Z,931.15
2017-02-17T00:26:57.499Z,931.16
2017-02-17T00:27:25.624Z,931.14
2017-02-17T00:27:53.775Z,931.17
2017-02-17T00:28:21.950Z,931.16
2017-02-17T00:28:50.068Z,931.16
2017-02-17T00:29:18.191Z,931.19
2017-02-17T00:29:46.258Z,931.15
2017-02-17T00:30:14.402Z,931.19
2017-02-17T00:30:42.404Z,931.16
2017-02-17T00:31:10.663Z,931.15
2017-02-17T00:31:38.710Z,931.17
2017-02-17T00:32:06.875Z,931.19
2017-02-17T00:32:35.003Z,931.17
2017-02-17T00:33:03.044Z,931.2
2017-02-17T00:33:31.091Z,931.16
2017-02-17T00:33:59.227Z,931.18
2017-02-17T00:34:27.261Z,931.19
2017-02-17T00:34:55.314Z,931.2
2017-02-17T00:35:23.488Z,931.26
2017-02-17T00:35:51.580Z,931.23
2017-02-17T00:36:19.834Z,931.27
2017-02-17T00:36:47.861Z,931.28
2017-02-17T00:37:16.093Z,931.27
2017-02-17T00:37:44.305Z,931.24
2017-02-17T00:38:12.219Z,931.3
2017-02-17T00:38:40.456Z,931.29
2017-02-17T00:39:08.494Z,931.29
2017-02-17T00:39:36.289Z,931.28
2017-02-17T00:40:04.426Z,931.3
2017-02-17T00:40:32.517Z,931.33
2017-02-17T00:41:01.018Z,931.29
2017-02-17T00:41:29.098Z,931.32
2017-02-17T00:41:56.961Z,931.31
2017-02-17T00:42:25.114Z,931.32
2017-02-17T00:42:53.224Z,931.32
2017-02-17T00:43:21.324Z,931.32
2017-02-17T00:43:49.433Z,931.31
2017-02-17T00:44:17.679Z,931.3
2017-02-17T00:44:45.794Z,931.3
2017-02-17T00:45:13.888Z,931.28
2017-02-17T00:45:42.130Z,931.31
2017-02-17T00:46:10.296Z,931.29
2017-02-17T00:46:38.452Z,931.24
2017-02-17T00:47:06.420Z,931.28
2017-02-17T00:47:34.523Z,931.27
2017-02-17T00:48:02.526Z,931.28
2017-02-17T00:48:30.577Z,931.27
2017-02-17T00:48:58.773Z,931.31
2017-02-17T00:49:26.969Z,931.3
2017-02-17T00:49:55.003Z,931.28
2017-02-17T00:50:23.224Z,931.3
2017-02-17T00:50:51.159Z,931.28
2017-02-17T00:51:19.583Z,931.33
2017-02-17T00:51:47.722Z,931.3
2017-02-17T00:52:15.931Z,931.32
2017-02-17T00:52:44.022Z,931.29
2017-02-17T00:53:11.979Z,931.31
2017-02-17T00:53:40.003Z,931.34
2017-02-17T00:54:08.016Z,931.34
2017-02-17T00:54:36.118Z,931.36
2017-02-17T00:55:04.048Z,931.34
2017-02-17T00:55:32.135Z,931.33
2017-02-17T00:56:00.174Z,931.34
2017-02-17T00:56:28.378Z,931.33
2017-02-17T00:56:56.391Z,931.37
2017-02-17T00:57:24.571Z,931.38
2017-02-17T00:57:52.745Z,931.33
2017-02-17T00:58:20.718Z,931.35
2017-02-17T00:58:48.951Z,931.38
2017-02-17T00:59:17.157Z,931.36
2017-02-17T00:59:45.376Z,931.35
2017-02-17T01:00:13.444Z,931.34
2017-02-17T01:00:41.674Z,931.35
2017-02-17T01:01:09.533Z,931.34
2017-02-17T01:01:37.741Z,931.33
2017-02-17T01:02:05.985Z,931.33
2017-02-17T01:02:34.093Z,931.33
2017-02-17T01:03:02.226Z,931.37
2017-02-17T01:03:30.254Z,931.33
2017-02-17T01:03:58.422Z,931.33
2017-02-17T01:04:26.471Z,931.37
2017-02-17T01:04:54.664Z,931.35
2017-02-17T01:05:22.825Z,931.37
2017-02-17T01:05:50.906Z,931.38
2017-02-17T01:06:18.956Z,931.37
2017-02-17T01:06:47.176Z,931.38
2017-02-17T01:07:15.022Z,931.44
2017-02-17T01:07:43.087Z,931.45
2017-02-17T01:08:11.011Z,931.42
2017-02-17T01:08:39.205Z,931.43
2017-02-17T01:09:07.333Z,931.44
2017-02-17T01:09:35.357Z,931.43
2017-02-17T01:10:03.399Z,931.46
2017-02-17T01:10:31.593Z,931.48
2017-02-17T01:10:59.805Z,931.45
2017-02-17T01:11:27.853Z,931.49
2017-02-17T01:11:55.963Z,931.52
2017-02-17T01:12:24.009Z,931.48
2017-02-17T01:12:52.075Z,931.51
2017-02-17T01:13:20.276Z,931.54
2017-02-17T01:13:48.377Z,931.5
2017-02-17T01:14:16.626Z,931.5
2017-02-17T01:14:44.856Z,931.51
2017-02-17T01:15:12.928Z,931.53
2017-02-17T01:15:40.949Z,931.49
2017-02-17T01:16:09.124Z,931.53
2017-02-17T01:16:37.261Z,931.5
2017-02-17T01:17:05.415Z,931.51
2017-02-17T01:17:33.550Z,931.54
2017-02-17T01:18:01.639Z,931.56
2017-02-17T01:18:29.754Z,931.53
2017-02-17T01:18:57.966Z,931.55
2017-02-17T01:19:26.119Z,931.54
2017-02-17T01:19:54.307Z,931.57
2017-02-17T01:20:22.460Z,931.59
2017-02-17T01:20:50.448Z,931.6
2017-02-17T01:21:18.592Z,931.56
2017-02-17T01:21:46.806Z,931.57
2017-02-17T01:22:14.975Z,931.59
2017-02-17T01:22:43.070Z,931.62
2017-02-17T01:23:11.177Z,931.58
2017-02-17T01:23:39.196Z,931.57
2017-02-17T01:24:07.331Z,931.59
2017-02-17T01:24:35.409Z,931.57
2017-02-17T01:25:03.660Z,931.55
2017-02-17T01:25:31.925Z,931.55
2017-02-17T01:25:59.966Z,931.51
2017-02-17T01:26:28.097Z,931.56
2017-02-17T01:26:56.322Z,931.59
2017-02-17T01:27:24.366Z,931.53
2017-02-17T01:27:52.604Z,931.56
2017-02-17T01:28:20.615Z,931.57
2017-02-17T01:28:48.695Z,931.56
2017-02-17T01:29:16.867Z,931.58
2017-02-17T01:29:44.946Z,931.56
2017-02-17T01:30:13.102Z,931.56
2017-02-17T01:30:41.276Z,931.59
2017-02-17T01:31:09.533Z,931.55
2017-02-17T01:31:37.770Z,931.58
2017-02-17T01:32:05.680Z,931.6
2017-02-17T01:32:33.719Z,931.57
2017-02-17T01:33:01.816Z,931.58
2017-02-17T01:33:29.792Z,931.58
2017-02-17T01:33:57.906Z,931.55
2017-02-17T01:34:26.003Z,931.6
2017-02-17T01:34:54.150Z,931.57
2017-02-17T01:35:22.317Z,931.57
2017-02-17T01:35:50.427Z,931.55
2017-02-17T01:36:18.595Z,931.56
2017-02-17T01:36:46.921Z,931.56
2017-02-17T01:37:15.011Z,931.54
2017-02-17T01:37:43.079Z,931.56
2017-02-17T01:38:11.293Z,931.55
2017-02-17T01:38:39.508Z,931.56
2017-02-17T01:39:07.631Z,931.56
2017-02-17T01:39:35.821Z,931.53
2017-02-17T01:40:04.066Z,931.56
2017-02-17T01:40:32.169Z,931.56
2017-02-17T01:41:00.282Z,931.55
2017-02-17T01:41:28.477Z,931.54
2017-02-17T01:41:56.468Z,931.51
2017-02-17T01:42:24.664Z,931.51
2017-02-17T01:42:52.886Z,931.53
2017-02-17T01:43:20.996Z,931.5
2017-02-17T01:43:49.046Z,931.51
2017-02-17T01:44:17.052Z,931.49
2017-02-17T01:44:44.925Z,931.5
2017-02-17T01:45:13.147Z,931.5
2017-02-17T01:45:41.201Z,931.52
2017-02-17T01:46:09.318Z,931.5
2017-02-17T01:46:37.481Z,931.55
2017-02-17T01:47:05.635Z,931.51
2017-02-17T01:47:33.729Z,931.51
2017-02-17T01:48:01.935Z,931.5
2017-02-17T01:48:30.069Z,931.52
2017-02-17T01:48:58.184Z,931.51
2017-02-17T01:49:26.294Z,931.49
2017-02-17T01:49:54.448Z,931.51
2017-02-17T01:50:22.522Z,931.49
2017-02-17T01:50:50.577Z,931.52
2017-02-17T01:51:18.784Z,931.51
2017-02-17T01:51:47.148Z,931.51
2017-02-17T01:52:15.369Z,931.51
2017-02-17T01:52:43.480Z,931.53
2017-02-17T01:53:11.677Z,931.53
2017-02-17T01:53:39.882Z,931.55
2017-02-17T01:54:07.913Z,931.51
2017-02-17T01:54:36.072Z,931.55
2017-02-17T01:55:04.207Z,931.53
2017-02-17T01:55:32.337Z,931.53
2017-02-17T01:56:00.622Z,931.5
2017-02-17T01:56:28.826Z,931.54
2017-02-17T01:56:56.974Z,931.52
2017-02-17T01:57:25.090Z,931.53
2017-02-17T01:57:53.210Z,931.54
2017-02-17T01:58:21.341Z,931.52
2017-02-17T01:58:49.395Z,931.5
2017-02-17T01:59:17.357Z,931.53
2017-02-17T01:59:45.449Z,931.54
2017-02-17T02:00:13.493Z,931.55
2017-02-17T02:00:41.649Z,931.55
2017-02-17T02:01:09.697Z,931.54
2017-02-17T02:01:37.886Z,931.54
2017-02-17T02:02:05.896Z,931.53
2017-02-17T02:02:33.909Z,931.54
2017-02-17T02:03:01.987Z,931.53
2017-02-17T02:03:30.114Z,931.56
2017-02-17T02:03:58.331Z,931.55
2017-02-17T02:04:26.544Z,931.54
2017-02-17T02:04:54.801Z,931.56
2017-02-17T02:05:22.723Z,931.56
2017-02-17T02:05:50.874Z,931.57
2017-02-17T02:06:19.044Z,931.59
2017-02-17T02:06:47.250Z,931.58
2017-02-17T02:07:15.448Z,931.57
2017-02-17T02:07:43.515Z,931.57
2017-02-17T02:08:11.682Z,931.57
2017-02-17T02:08:39.902Z,931.57
2017-02-17T02:09:08.070Z,931.55
2017-02-17T02:09:36.122Z,931.58
2017-02-17T02:10:04.171Z,931.54
2017-02-17T02:10:32.278Z,931.58
2017-02-17T02:11:00.350Z,931.56
2017-02-17T02:11:28.437Z,931.57
2017-02-17T02:11:56.601Z,931.55
2017-02-17T02:12:24.604Z,931.55
2017-02-17T02:12:52.761Z,931.55
2017-02-17T02:13:20.842Z,931.52
2017-02-17T02:13:48.984Z,931.52
2017-02-17T02:14:17.073Z,931.57
2017-02-17T02:14:45.180Z,931.52
2017-02-17T02:15:13.327Z,931.54
2017-02-17T02:15:41.463Z,931.51
2017-02-17T02:16:09.644Z,931.51
2017-02-17T02:16:37.686Z,931.52
2017-02-17T02:17:05.850Z,931.55
2017-02-17T02:17:34.005Z,931.51
2017-02-17T02:18:02.207Z,931.5
2017-02-17T02:18:30.251Z,931.47
2017-02-17T02:18:58.371Z,931.45
2017-02-17T02:19:26.491Z,931.43
2017-02-17T02:19:54.597Z,931.45
2017-02-17T02:20:22.701Z,931.48
2017-02-17T02:20:50.932Z,931.47
2017-02-17T02:21:18.965Z,931.49
2017-02-17T02:21:47.080Z,931.46
2017-02-17T02:22:15.469Z,931.43
2017-02-17T02:22:43.498Z,931.47
2017-02-17T02:23:11.718Z,931.46
2017-02-17T02:23:39.712Z,931.45
2017-02-17T02:24:07.679Z,931.46
2017-02-17T02:24:35.740Z,931.46
2017-02-17T02:25:03.720Z,931.45
2017-02-17T02:25:31.914Z,931.43
2017-02-17T02:26:00.001Z,931.4
2017-02-17T02:26:28.146Z,931.43
2017-02-17T02:26:56.283Z,931.41
2017-02-17T02:27:24.434Z,931.4
2017-02-17T02:27:52.481Z,931.4
2017-02-17T02:28:20.482Z,931.38
2017-02-17T02:28:48.592Z,931.35
2017-02-17T02:29:16.631Z,931.37
2017-02-17T02:29:44.843Z,931.35
2017-02-17T02:30:12.952Z,931.37
2017-02-17T02:30:40.799Z,931.34
2017-02-17T02:31:08.813Z,931.36
2017-02-17T02:31:36.924Z,931.35
2017-02-17T02:32:04.913Z,931.37
2017-02-17T02:32:33.382Z,931.34
2017-02-17T02:33:01.595Z,931.35
2017-02-17T02:33:29.872Z,931.34
2017-02-17T02:33:57.941Z,931.37
2017-02-17T02:34:26.010Z,931.36
2017-02-17T02:34:54.064Z,931.36
2017-02-17T02:35:22.172Z,931.39
2017-02-17T02:35:50.275Z,931.4
2017-02-17T02:36:18.470Z,931.36
2017-02-17T02:36:46.671Z,931.38
2017-02-17T02:37:15.155Z,931.36
2017-02-17T02:37:43.200Z,931.37
2017-02-17T02:38:11.181Z,931.38
2017-02-17T02:38:39.310Z,931.36
2017-02-17T02:39:07.507Z,931.36
2017-02-17T02:39:35.507Z,931.37
2017-02-17T02:40:03.717Z,931.36
2017-02-17T02:40:31.895Z,931.4
2017-02-17T02:40:59.930Z,931.37
2017-02-17T02:41:28.052Z,931.35
2017-02-17T02:41:56.312Z,931.34
2017-02-17T02:42:24.529Z,931.34
2017-02-17T02:42:52.588Z,931.35
2017-02-17T02:43:20.826Z,931.34
2017-02-17T02:43:48.955Z,931.31
2017-02-17T02:44:16.996Z,931.35
2017-02-17T02:44:45.167Z,931.31
2017-02-17T02:45:13.202Z,931.32
2017-02-17T02:45:41.416Z,931.32
2017-02-17T02:46:09.551Z,931.31
2017-02-17T02:46:38.522Z,931.3
2017-02-17T02:47:06.555Z,931.31
2017-02-17T02:47:34.743Z,931.33
2017-02-17T02:48:02.954Z,931.32
2017-02-17T02:48:31.071Z,931.3
2017-02-17T02:48:59.122Z,931.32
2017-02-17T02:49:27.312Z,931.28
2017-02-17T02:49:55.416Z,931.27
2017-02-17T02:50:23.461Z,931.27
2017-02-17T02:50:51.637Z,931.3
2017-02-17T02:51:19.755Z,931.29
2017-02-17T02:51:47.763Z,931.26
2017-02-17T02:52:15.861Z,931.27
2017-02-17T02:52:43.995Z,931.28
2017-02-17T02:53:12.240Z,931.29
2017-02-17T02:53:40.524Z,931.28
2017-02-17T02:54:08.662Z,931.28
2017-02-17T02:54:36.816Z,931.23
2017-02-17T02:55:04.811Z,931.25
2017-02-17T02:55:33.043Z,931.24
2017-02-17T02:56:01.081Z,931.23
2017-02-17T02:56:29.232Z,931.21
2017-02-17T02:56:57.488Z,931.21
2017-02-17T02:57:25.771Z,931.19
2017-02-17T02:57:53.948Z,931.19
2017-02-17T02:58:21.968Z,931.17
2017-02-17T02:58:50.098Z,931.17
2017-02-17T02:59:18.131Z,931.17
2017-02-17T02:59:46.341Z,931.14
2017-02-17T03:00:14.439Z,931.14
2017-02-17T03:00:42.453Z,931.14
2017-02-17T03:01:10.451Z,931.13
2017-02-17T03:01:38.607Z,931.12
2017-02-17T03:02:06.872Z,931.15
2017-02-17T03:02:35.123Z,931.14
2017-02-17T03:03:03.308Z,931.14
2017-02-17T03:03:31.440Z,931.15
2017-02-17T03:03:59.614Z,931.11
2017-02-17T03:04:27.637Z,931.11
2017-02-17T03:04:55.799Z,931.13
2017-02-17T03:05:23.906Z,931.15
2017-02-17T03:05:52.132Z,931.13
2017-02-17T03:06:20.257Z,931.16
2017-02-17T03:06:48.309Z,931.14
2017-02-17T03:07:16.516Z,931.13
2017-02-17T03:07:44.980Z,931.14
2017-02-17T03:08:13.124Z,931.13
2017-02-17T03:08:41.064Z,931.13
2017-02-17T03:09:09.197Z,931.13
2017-02-17T03:09:37.325Z,931.1
2017-02-17T03:10:05.308Z,931.11
2017-02-17T03:10:33.412Z,931.11
2017-02-17T03:11:01.661Z,931.12
2017-02-17T03:11:29.862Z,931.11
2017-02-17T03:11:57.951Z,931.11
2017-02-17T03:12:26.163Z,931.11
2017-02-17T03:12:54.656Z,931.1
2017-02-17T03:13:22.935Z,931.12
2017-02-17T03:13:51.150Z,931.1
2017-02-17T03:14:19.198Z,931.11
2017-02-17T03:14:47.170Z,931.08
2017-02-17T03:15:15.274Z,931.06
2017-02-17T03:15:43.338Z,931.08
2017-02-17T03:16:11.460Z,931.04
2017-02-17T03:16:39.449Z,931.01
2017-02-17T03:17:07.539Z,931.04
2017-02-17T03:17:35.484Z,931.05
2017-02-17T03:18:03.717Z,931.02
2017-02-17T03:18:31.862Z,931.02
2017-02-17T03:19:00.065Z,930.99
2017-02-17T03:19:28.301Z,931
2017-02-17T03:19:56.434Z,930.99
2017-02-17T03:20:24.636Z,930.97
2017-02-17T03:20:52.714Z,930.98
2017-02-17T03:21:20.832Z,930.95
2017-02-17T03:21:48.973Z,930.94
2017-02-17T03:22:17.068Z,930.91
2017-02-17T03:22:45.316Z,930.92
2017-02-17T03:23:13.438Z,930.91
2017-02-17T03:23:41.567Z,930.92
2017-02-17T03:24:09.650Z,930.93
2017-02-17T03:24:37.792Z,930.92
2017-02-17T03:25:05.938Z,930.89
2017-02-17T03:25:34.145Z,930.9
2017-02-17T03:26:02.147Z,930.89
2017-02-17T03:26:30.300Z,930.9
2017-02-17T03:26:58.235Z,930.89
2017-02-17T03:27:26.443Z,930.85
2017-02-17T03:27:54.566Z,930.89
2017-02-17T03:28:22.486Z,930.86
2017-02-17T03:28:50.564Z,930.89
2017-02-17T03:29:18.619Z,930.86
2017-02-17T03:29:46.820Z,930.86
2017-02-17T03:30:14.934Z,930.89
2017-02-17T03:30:43.021Z,930.88
2017-02-17T03:31:11.174Z,930.84
2017-02-17T03:31:39.374Z,930.83
2017-02-17T03:32:07.479Z,930.84
2017-02-17T03:32:35.371Z,930.86
2017-02-17T03:33:03.536Z,930.84
2017-02-17T03:33:31.799Z,930.84
2017-02-17T03:33:59.850Z,930.83
2017-02-17T03:34:27.936Z,930.83
2017-02-17T03:34:56.167Z,930.81
2017-02-17T03:35:24.237Z,930.8
2017-02-17T03:35:52.341Z,930.8
2017-02-17T03:36:20.416Z,930.78
2017-02-17T03:36:48.539Z,930.78
2017-02-17T03:37:16.662Z,930.79
2017-02-17T03:37:44.763Z,930.81
2017-02-17T03:38:13.053Z,930.74
2017-02-17T03:38:41.188Z,930.75
2017-02-17T03:39:09.418Z,930.73
2017-02-17T03:39:37.445Z,930.72
2017-02-17T03:40:05.524Z,930.71
2017-02-17T03:40:33.576Z,930.69
2017-02-17T03:41:01.645Z,930.69
2017-02-17T03:41:29.701Z,930.69
2017-02-17T03:41:57.731Z,930.68
2017-02-17T03:42:25.855Z,930.65
2017-02-17T03:42:54.161Z,930.65
2017-02-17T03:43:22.308Z,930.66
2017-02-17T03:43:50.424Z,930.67
2017-02-17T03:44:18.467Z,930.68
2017-02-17T03:44:46.724Z,930.67
2017-02-17T03:45:14.855Z,930.65
2017-02-17T03:45:42.990Z,930.67
2017-02-17T03:46:10.915Z,930.64
2017-02-17T03:46:39.010Z,930.67
2017-02-17T03:47:07.149Z,930.64
2017-02-17T03:47:35.189Z,930.64
2017-02-17T03:48:03.389Z,930.64
2017-02-17T03:48:31.472Z,930.62
2017-02-17T03:48:59.643Z,930.64
2017-02-17T03:49:27.731Z,930.61
2017-02-17T03:49:55.965Z,930.63
2017-02-17T03:50:23.997Z,930.62
2017-02-17T03:50:52.118Z,930.57
2017-02-17T03:51:20.308Z,930.57
2017-02-17T03:51:48.531Z,930.55
2017-02-17T03:52:16.648Z,930.53
2017-02-17T03:52:44.803Z,930.55
2017-02-17T03:53:13.058Z,930.53
2017-02-17T03:53:41.227Z,930.53
2017-02-17T03:54:09.102Z,930.55
2017-02-17T03:54:37.311Z,930.56
2017-02-17T03:55:05.439Z,930.56
2017-02-17T03:55:33.564Z,930.53
2017-02-17T03:56:01.602Z,930.53
2017-02-17T03:56:29.807Z,930.54
2017-02-17T03:56:57.893Z,930.54
2017-02-17T03:57:25.967Z,930.55
2017-02-17T03:57:54.106Z,930.56
2017-02-17T03:58:22.408Z,930.55
2017-02-17T03:58:50.515Z,930.57
2017-02-17T03:59:33.178Z,930.55
2017-02-17T04:00:01.439Z,930.55
2017-02-17T04:00:29.692Z,930.55
2017-02-17T04:00:57.686Z,930.56
2017-02-17T04:01:25.794Z,930.55
2017-02-17T04:01:53.904Z,930.55
2017-02-17T04:02:22.082Z,930.53
2017-02-17T04:02:50.009Z,930.57
2017-02-17T04:03:18.330Z,930.55
2017-02-17T04:03:46.452Z,930.57
2017-02-17T04:04:14.656Z,930.55
2017-02-17T04:04:42.845Z,930.55
2017-02-17T04:05:10.716Z,930.52
2017-02-17T04:05:38.925Z,930.56
2017-02-17T04:06:07.124Z,930.52
2017-02-17T04:06:35.217Z,930.47
2017-02-17T04:07:03.418Z,930.52
2017-02-17T04:07:31.531Z,930.48
2017-02-17T04:07:59.678Z,930.49
2017-02-17T04:08:27.934Z,930.5
2017-02-17T04:08:55.987Z,930.49
2017-02-17T04:09:24.044Z,930.5
2017-02-17T04:09:52.265Z,930.48
2017-02-17T04:10:20.403Z,930.49
2017-02-17T04:10:48.477Z,930.48
2017-02-17T04:11:16.632Z,930.49
2017-02-17T04:11:44.694Z,930.48
2017-02-17T04:12:12.798Z,930.49
2017-02-17T04:12:40.848Z,930.44
2017-02-17T04:13:08.957Z,930.46
2017-02-17T04:13:37.256Z,930.42
2017-02-17T04:14:05.426Z,930.46
2017-02-17T04:14:33.480Z,930.45
2017-02-17T04:15:01.708Z,930.46
2017-02-17T04:15:29.926Z,930.48
2017-02-17T04:15:58.014Z,930.44
2017-02-17T04:16:26.130Z,930.47
2017-02-17T04:16:54.371Z,930.46
2017-02-17T04:17:22.424Z,930.45
2017-02-17T04:17:50.544Z,930.48
2017-02-17T04:18:18.810Z,930.48
2017-02-17T04:18:47.027Z,930.51
2017-02-17T04:19:14.971Z,930.45
2017-02-17T04:19:42.900Z,930.44
2017-02-17T04:20:11.100Z,930.47
2017-02-17T04:20:39.200Z,930.48
2017-02-17T04:21:07.315Z,930.47
2017-02-17T04:21:35.356Z,930.47
2017-02-17T04:22:03.480Z,930.44
2017-02-17T04:22:31.677Z,930.45
2017-02-17T04:22:59.731Z,930.44
2017-02-17T04:23:27.967Z,930.39
2017-02-17T04:23:56.012Z,930.41
2017-02-17T04:24:24.238Z,930.37
2017-02-17T04:24:52.478Z,930.35
2017-02-17T04:25:20.537Z,930.35
2017-02-17T04:25:48.731Z,930.36
2017-02-17T04:26:16.879Z,930.32
2017-02-17T04:26:45.080Z,930.29
2017-02-17T04:27:12.829Z,930.3
2017-02-17T04:27:40.958Z,930.27
2017-02-17T04:28:09.160Z,930.29
2017-02-17T04:28:37.340Z,930.26
2017-02-17T04:29:05.474Z,930.25
2017-02-17T04:29:33.487Z,930.27
2017-02-17T04:30:01.729Z,930.27
2017-02-17T04:30:29.870Z,930.25
2017-02-17T04:30:58.051Z,930.28
2017-02-17T04:31:26.088Z,930.27
2017-02-17T04:31:54.221Z,930.27
2017-02-17T04:32:22.270Z,930.24
2017-02-17T04:32:50.431Z,930.26
2017-02-17T04:33:18.565Z,930.24
2017-02-17T04:33:46.705Z,930.26
2017-02-17T04:34:14.925Z,930.3
2017-02-17T04:34:43.154Z,930.27
2017-02-17T04:35:11.301Z,930.24
2017-02-17T04:35:39.342Z,930.27
2017-02-17T04:36:07.550Z,930.26
2017-02-17T04:36:35.690Z,930.26
2017-02-17T04:37:03.754Z,930.21
2017-02-17T04:37:31.872Z,930.2
2017-02-17T04:38:00.063Z,930.19
2017-02-17T04:38:28.182Z,930.21
2017-02-17T04:38:56.363Z,930.17
2017-02-17T04:39:24.356Z,930.19
2017-02-17T04:39:52.427Z,930.14
2017-02-17T04:40:20.677Z,930.13
2017-02-17T04:40:48.765Z,930.07
2017-02-17T04:41:16.807Z,930.1
2017-02-17T04:41:44.747Z,930.09
2017-02-17T04:42:13.011Z,930.08
2017-02-17T04:42:41.230Z,930.1
2017-02-17T04:43:09.385Z,930.09
2017-02-17T04:43:37.528Z,930.06
2017-02-17T04:44:05.660Z,930.12
2017-02-17T04:44:33.843Z,930.09
2017-02-17T04:45:01.946Z,930.08
2017-02-17T04:45:30.164Z,930.06
2017-02-17T04:45:58.227Z,930.08
2017-02-17T04:46:26.445Z,930.07
2017-02-17T04:46:54.503Z,930.09
2017-02-17T04:47:22.533Z,930.09
2017-02-17T04:47:50.504Z,930.1
2017-02-17T04:48:18.719Z,930.09
2017-02-17T04:48:46.946Z,930.1
2017-02-17T04:49:15.164Z,930.07
2017-02-17T04:49:43.176Z,930.09
2017-02-17T04:50:11.198Z,930.08
2017-02-17T04:50:39.303Z,930.07
2017-02-17T04:51:07.549Z,930.07
2017-02-17T04:51:35.664Z,930.07
2017-02-17T04:52:03.638Z,930.05
2017-02-17T04:52:31.854Z,930.06
2017-02-17T04:52:59.811Z,930.09
2017-02-17T04:53:27.800Z,930.05
2017-02-17T04:53:56.158Z,930.07
2017-02-17T04:54:24.378Z,930.06
2017-02-17T04:54:52.397Z,930.06
2017-02-17T04:55:20.533Z,930.03
2017-02-17T04:55:48.629Z,930.03
2017-02-17T04:56:16.802Z,930.02
2017-02-17T04:56:44.821Z,930.03
2017-02-17T04:57:12.920Z,930.02
2017-02-17T04:57:40.845Z,930.05
2017-02-17T04:58:08.985Z,930.05
2017-02-17T04:58:37.144Z,930.08
2017-02-17T04:59:05.539Z,930.07
2017-02-17T04:59:33.672Z,930.07
2017-02-17T05:00:01.854Z,930.04
2017-02-17T05:00:30.018Z,930.04
2017-02-17T05:00:58.102Z,930.05
2017-02-17T05:01:26.146Z,930.06
2017-02-17T05:01:54.103Z,930.04
2017-02-17T05:02:22.159Z,930.03
2017-02-17T05:02:50.405Z,930.06
2017-02-17T05:03:18.495Z,930.05
2017-02-17T05:03:46.621Z,930.07
2017-02-17T05:04:14.970Z,930.04
2017-02-17T05:04:43.123Z,930.07
2017-02-17T05:05:11.235Z,930.04
2017-02-17T05:05:39.292Z,930.06
2017-02-17T05:06:07.199Z,930.06
2017-02-17T05:06:35.421Z,930.05
2017-02-17T05:07:03.441Z,930.04
2017-02-17T05:07:31.624Z,930.02
2017-02-17T05:07:59.787Z,930.01
2017-02-17T05:08:27.920Z,930.02
2017-02-17T05:08:56.269Z,930.01
2017-02-17T05:09:24.379Z,930.03
2017-02-17T05:09:52.390Z,930.01
2017-02-17T05:10:20.479Z,930
2017-02-17T05:10:48.735Z,929.99
2017-02-17T05:11:16.932Z,929.97
2017-02-17T05:11:45.102Z,929.99
2017-02-17T05:12:13.162Z,929.99
2017-02-17T05:12:41.315Z,929.96
2017-02-17T05:13:09.559Z,929.96
2017-02-17T05:13:37.671Z,929.98
2017-02-17T05:14:05.805Z,929.97
2017-02-17T05:14:33.843Z,929.93
2017-02-17T05:15:01.879Z,929.96
2017-02-17T05:15:29.894Z,929.93
2017-02-17T05:15:58.011Z,929.92
2017-02-17T05:16:26.109Z,929.91
2017-02-17T05:16:54.318Z,929.89
2017-02-17T05:17:22.525Z,929.9
2017-02-17T05:17:50.658Z,929.89
2017-02-17T05:18:18.740Z,929.92
2017-02-17T05:18:46.944Z,929.89
2017-02-17T05:19:15.089Z,929.89
2017-02-17T05:19:43.182Z,929.89
2017-02-17T05:20:11.370Z,929.88
2017-02-17T05:20:39.467Z,929.91
2017-02-17T05:21:07.625Z,929.91
2017-02-17T05:21:35.563Z,929.93
2017-02-17T05:22:03.765Z,929.9
2017-02-17T05:22:31.858Z,929.93
2017-02-17T05:22:59.913Z,929.97
2017-02-17T05:23:28.088Z,929.95
2017-02-17T05:23:56.297Z,929.93
2017-02-17T05:24:24.597Z,929.93
2017-02-17T05:24:52.773Z,929.95
2017-02-17T05:25:20.826Z,929.96
2017-02-17T05:25:48.847Z,929.97
2017-02-17T05:26:17.069Z,929.93
2017-02-17T05:26:45.032Z,929.97
2017-02-17T05:27:12.947Z,929.96
2017-02-17T05:27:41.138Z,929.95
2017-02-17T05:28:09.098Z,929.93
2017-02-17T05:28:37.067Z,929.94
2017-02-17T05:29:05.248Z,929.92
2017-02-17T05:29:33.313Z,929.94
2017-02-17T05:30:01.521Z,929.94
2017-02-17T05:30:29.463Z,929.92
2017-02-17T05:30:57.641Z,929.91
2017-02-17T05:31:25.779Z,929.9
2017-02-17T05:31:53.950Z,929.89
2017-02-17T05:32:21.998Z,929.86
2017-02-17T05:32:50.179Z,929.87
2017-02-17T05:33:18.344Z,929.87
2017-02-17T05:33:46.390Z,929.91
2017-02-17T05:34:14.586Z,929.88
2017-02-17T05:34:42.680Z,929.87
2017-02-17T05:35:10.854Z,929.87
2017-02-17T05:35:39.048Z,929.89
2017-02-17T05:36:07.032Z,929.87
2017-02-17T05:36:35.082Z,929.88
2017-02-17T05:37:03.182Z,929.88
2017-02-17T05:37:31.332Z,929.89
2017-02-17T05:37:59.384Z,929.87
2017-02-17T05:38:27.603Z,929.86
2017-02-17T05:38:55.828Z,929.88
2017-02-17T05:39:23.979Z,929.88
2017-02-17T05:39:52.197Z,929.9
2017-02-17T05:40:20.322Z,929.91
2017-02-17T05:40:48.316Z,929.88
2017-02-17T05:41:16.503Z,929.89
2017-02-17T05:41:44.724Z,929.88
2017-02-17T05:42:12.845Z,929.89
2017-02-17T05:42:41.025Z,929.87
2017-02-17T05:43:09.056Z,929.88
2017-02-17T05:43:37.233Z,929.86
2017-02-17T05:44:05.367Z,929.85
2017-02-17T05:44:33.623Z,929.86
2017-02-17T05:45:01.798Z,929.86
2017-02-17T05:45:29.845Z,929.84
2017-02-17T05:45:58.016Z,929.84
2017-02-17T05:46:26.174Z,929.81
2017-02-17T05:46:54.299Z,929.84
2017-02-17T05:47:22.481Z,929.81
2017-02-17T05:47:50.603Z,929.82
2017-02-17T05:48:18.780Z,929.79
2017-02-17T05:48:46.875Z,929.8
2017-02-17T05:49:15.092Z,929.82
2017-02-17T05:49:43.519Z,929.83
2017-02-17T05:50:11.558Z,929.81
2017-02-17T05:50:39.690Z,929.8
2017-02-17T05:51:07.741Z,929.77
2017-02-17T05:51:35.772Z,929.79
2017-02-17T05:52:03.694Z,929.79